Řízení letového provozu České republiky  
Aktualizace dat:  20.01.2017 22:08:17 UTC English version
   METEO Zobrazení stránky:  20.01.2017 22:10:08 UTC  
vysvětlivky
METAR EDDB 202150Z 25001KT 2600 -DZ BR BKN003 BKN014 01/00 Q1034 R25/19//95 TEMPO 3500 -DZ BR SCT002=
METAR EDDC 202150Z 19002KT 6000 BKN036 M03/M05 Q1033=
METAR EDDE 202150Z 01001KT 9999 BKN030 M02/M06 Q1033=
METAR EDDF 202150Z 09006KT CAVOK M01/M06 Q1032 R88/0///95 NOSIG=
METAR EDDM 202150Z 10003KT CAVOK M13/M14 Q1030 NOSIG=
METAR EDDN 202150Z VRB01KT CAVOK M05/M13 Q1031 NOSIG=
METAR EDDP 202150Z 22002KT 9999 FEW040 M05/M07 Q1034 NOSIG=
METAR EDDT 202150Z 27004KT 3000 BR FEW002 BKN003 01/00 Q1034 R88/190095 NOSIG=
METAR EDQM 201850Z 04005KT CAVOK M03/M08 Q1031=
METAR EPBY 202200Z 26011KT 1600 BR OVC002 02/01 Q1030 R26/29//95 =
METAR EPGD 202200Z 28013KT 7000 OVC004 03/02 Q1026 R11/290095 =
METAR EPKK 202200Z 20005KT 5000 HZ SCT007 BKN010 M02/M08 Q1032 =
METAR EPKT 202200Z 24007KT 0800 R27/2000N -FZDZ FZFG OVC002 M02/M02 Q1032 =
METAR EPLL 202200Z 26013KT 2000 -DZ BR OVC002 01/00 Q1030 R25/29//95 =
METAR EPPO 202200Z 26008KT 3200 BR OVC002 01/00 Q1032 R10/29//95 =
METAR EPRZ 202200Z 26013KT 8000 OVC013 00/M04 Q1031 =
METAR EPWA 202200Z 28007KT 3200 -DZ BR OVC002 01/00 Q1029 R33/2///95 NOSIG=
METAR EPWR 202200Z 25006KT 9999 OVC017 01/M03 Q1033 =
METAR LHBP 202200Z VRB02KT 1200 R31L/P1500N R31R/P1500N FZBCFG BR NSC M09/M10 Q1036 NOSIG=
METAR LHSM 201545Z 00000KT 4000 HZ NSC M04/M08 Q1036=
METAR LKCV 202200Z 08001KT 3000 BR SKC M10/M11 Q1034 NOSIG=
METAR LKKB 202200Z 19003KT 060V210 2000 BR SCT025 M09/M09 Q1034 =
METAR LKKU NIL
METAR LKKV 202200Z 10003KT CAVOK M07/M14 Q1031 R29/////// RMK REG QNH 1028=
METAR LKLN 202200Z AUTO 21002KT 1700 BR NCD M12/M13 Q1033=
METAR LKMT 202200Z 23008KT 9999 BKN023 M03/M07 Q1034 R04/810195 NOSIG RMK REG QNH 1028=
METAR LKNA 202200Z 36006KT CAVOK M07/M12 Q1032=
METAR LKPD 202200Z VRB01KT 4000 BR NSC M11/M13 Q1034 =
METAR LKPR 202200Z 00000KT 3500 BR NSC M09/M11 Q1033 NOSIG RMK REG QNH 1028=
METAR LKTB 202200Z VRB01KT 5000 BR NSC M10/M12 Q1034 R27/31//95 NOSIG RMK REG QNH 1028=
METAR LKVO NIL
METAR LOWI 202150Z VRB01KT 9999 R08/P1500D R26/P1500N FZBCFG SKC M09/M10 Q1030 NOSIG=
METAR LOWL 202150Z AUTO 06004KT 4700 FZBR NCD M10/M11 Q1032 NOSIG=
METAR LOWS 202150Z VRB02KT 4000 FZBR SKC M14/M16 Q1030=
METAR LOWW 202150Z VRB01KT 5000 FZBR FEW190 M09/M10 Q1035 R88/19//95 TEMPO 4500=
METAR LZIB 202200Z 01002KT 6000 FEW007 M10/M12 Q1036 R13/9/2095=
METAR LZKZ 202200Z 06003KT 9999 BKN040 M09/M11 Q1035=
METAR LZPP 202200Z AUTO 33002KT 3600 BR NCD M15/M16 Q1035=
METAR LZSL 202200Z 00000KT 2000 BR NSC M16/M18 Q1035=
METAR LZTT 202200Z VRB03KT 9999 FEW050 M08/M12 Q1030=
METAR LZZI 202200Z 00000KT 3500 BR NSC M11/M12 Q1034=